Time;durP1;ratioP1;P1;durP2;ratioP2;P2;SDS_P1;SDS_P2;PMS_P1;PMS_P2;Temp;Humidity;BMP_temperature;BMP_pressure;BME280_temperature;BME280_humidity;BME280_pressure;Samples;Min_cycle;Max_cycle;Signal;HPM_P1;HPM_P2
2022/04/24 00:01:09;;;;;;;4.43;3.93;;;;;;;9.47;60.16;99840.94;4992788;28;20874;-84
2022/04/24 00:03:36;;;;;;;4.97;4.40;;;;;;;9.45;59.82;99842.00;4996413;28;20219;-82
2022/04/24 00:06:02;;;;;;;7.17;4.27;;;;;;;9.42;59.96;99828.91;4996882;28;20450;-82
2022/04/24 00:08:29;;;;;;;5.90;4.00;;;;;;;9.38;60.05;99825.63;4993555;28;20227;-82
2022/04/24 00:10:55;;;;;;;5.00;4.37;;;;;;;9.32;60.44;99821.59;4989505;28;20207;-82
2022/04/24 00:13:24;;;;;;;4.27;3.73;;;;;;;9.28;60.53;99817.47;4994666;28;20301;-82
2022/04/24 00:15:51;;;;;;;4.60;3.90;;;;;;;9.23;60.32;99816.94;4995640;28;20796;-82
2022/04/24 00:18:17;;;;;;;6.27;4.37;;;;;;;9.19;60.66;99807.47;4994894;23;20243;-70
2022/04/24 00:20:44;;;;;;;4.90;4.13;;;;;;;9.15;60.56;99810.44;4983892;28;20255;-69
2022/04/24 00:23:10;;;;;;;5.50;3.97;;;;;;;9.11;60.91;99819.63;4986915;28;20237;-70
2022/04/24 00:25:37;;;;;;;4.40;3.83;;;;;;;9.08;60.75;99809.22;4986699;28;20258;-68
2022/04/24 00:28:04;;;;;;;4.83;4.30;;;;;;;9.04;60.89;99808.56;4999468;23;20848;-75
2022/04/24 00:30:31;;;;;;;4.90;4.40;;;;;;;9.01;61.31;99804.31;4970466;28;20472;-75
2022/04/24 00:32:58;;;;;;;4.57;4.17;;;;;;;8.98;60.70;99806.34;4961723;28;20212;-75
2022/04/24 00:35:24;;;;;;;5.27;4.20;;;;;;;8.94;61.41;99792.44;4968396;28;20216;-74
2022/04/24 00:37:51;;;;;;;5.10;3.77;;;;;;;8.89;60.88;99791.91;4964164;28;20345;-75
2022/04/24 00:40:18;;;;;;;7.50;4.00;;;;;;;8.86;61.41;99793.91;4966011;28;20693;-73
2022/04/24 00:42:45;;;;;;;5.33;3.73;;;;;;;8.82;61.38;99789.78;4966501;28;20262;-74
2022/04/24 00:45:11;;;;;;;6.43;4.10;;;;;;;8.77;61.66;99786.63;4962981;28;20220;-74
2022/04/24 00:47:41;;;;;;;4.30;3.40;;;;;;;8.72;61.48;99778.09;4965683;28;20331;-75
2022/04/24 00:50:08;;;;;;;5.13;3.70;;;;;;;8.65;62.17;99778.53;4968304;28;20224;-75
2022/04/24 00:52:35;;;;;;;4.37;3.70;;;;;;;8.60;61.69;99777.13;4967953;28;20208;-72
2022/04/24 00:55:02;;;;;;;5.33;4.20;;;;;;;8.54;62.24;99782.88;4964458;28;20207;-74
2022/04/24 00:57:29;;;;;;;5.80;3.97;;;;;;;8.49;62.36;99780.53;4961607;28;20228;-73
2022/04/24 00:59:55;;;;;;;4.40;4.00;;;;;;;8.44;62.72;99781.78;4966468;28;20208;-74
2022/04/24 01:02:22;;;;;;;7.37;4.10;;;;;;;8.39;62.65;99781.28;4967984;28;20234;-74
2022/04/24 01:04:50;;;;;;;4.73;3.93;;;;;;;8.34;63.14;99782.44;4968374;28;20328;-74
2022/04/24 01:07:17;;;;;;;4.97;3.73;;;;;;;8.29;62.82;99784.50;4965239;28;20244;-75
2022/04/24 01:09:43;;;;;;;4.17;3.77;;;;;;;8.25;63.58;99774.19;4963831;28;20210;-75
2022/04/24 01:12:11;;;;;;;6.37;4.43;;;;;;;8.21;63.29;99780.69;4974348;28;20959;-73
2022/04/24 01:14:37;;;;;;;6.03;3.37;;;;;;;8.16;63.51;99777.50;4970996;28;20278;-75
2022/04/24 01:17:06;;;;;;;4.03;3.60;;;;;;;8.11;63.77;99775.13;4966966;28;20193;-75
2022/04/24 01:19:33;;;;;;;5.07;3.80;;;;;;;8.09;63.89;99763.78;4965854;28;20217;-75
2022/04/24 01:22:01;;;;;;;4.50;4.00;;;;;;;8.05;64.24;99778.22;4958413;28;20219;-74
2022/04/24 01:24:29;;;;;;;4.63;3.50;;;;;;;8.02;64.56;99771.31;4965619;28;20200;-75
2022/04/24 01:26:55;;;;;;;4.77;3.90;;;;;;;8.00;64.00;99777.66;4975446;28;20708;-75
2022/04/24 01:29:22;;;;;;;4.60;3.83;;;;;;;7.96;63.88;99777.03;4963210;28;20212;-75
2022/04/24 01:31:49;;;;;;;4.33;3.90;;;;;;;7.95;64.18;99777.13;4966832;28;20208;-74
2022/04/24 01:34:16;;;;;;;4.00;3.60;;;;;;;7.92;64.35;99772.00;4964043;28;20212;-74
2022/04/24 01:36:43;;;;;;;4.43;3.43;;;;;;;7.88;64.77;99770.53;4958709;28;20210;-74
2022/04/24 01:39:11;;;;;;;4.47;3.83;;;;;;;7.84;64.91;99769.88;4971845;28;20243;-75
2022/04/24 01:41:38;;;;;;;6.43;3.60;;;;;;;7.83;64.73;99762.03;4963907;28;20204;-75
2022/04/24 01:44:05;;;;;;;5.67;3.90;;;;;;;7.78;64.83;99761.47;4968326;28;20227;-75
2022/04/24 01:46:32;;;;;;;5.00;3.30;;;;;;;7.76;65.01;99773.97;4962366;28;20214;-75
2022/04/24 01:48:58;;;;;;;7.37;3.37;;;;;;;7.73;64.87;99772.38;4963602;28;20236;-74
2022/04/24 01:51:25;;;;;;;5.13;3.90;;;;;;;7.71;65.55;99770.78;4973703;28;20226;-74
2022/04/24 01:53:51;;;;;;;8.80;3.90;;;;;;;7.69;65.00;99772.69;4958531;28;20224;-74
2022/04/24 01:56:19;;;;;;;4.30;3.43;;;;;;;7.67;65.75;99770.16;4957599;28;20291;-74
2022/04/24 01:58:46;;;;;;;5.07;3.67;;;;;;;7.64;64.90;99768.53;4969606;28;20632;-74
2022/04/24 02:01:12;;;;;;;4.43;3.60;;;;;;;7.62;65.20;99770.44;4961784;28;20211;-74
2022/04/24 02:03:39;;;;;;;4.43;3.67;;;;;;;7.60;65.33;99779.44;4969124;28;20208;-74
2022/04/24 02:06:06;;;;;;;5.70;3.70;;;;;;;7.57;65.75;99774.31;4963817;28;20204;-72
2022/04/24 02:08:35;;;;;;;4.83;3.60;;;;;;;7.54;65.55;99772.72;4960265;28;20239;-74
2022/04/24 02:11:02;;;;;;;3.80;3.50;;;;;;;7.51;65.58;99772.09;4967253;28;20219;-74
2022/04/24 02:13:30;;;;;;;4.97;3.67;;;;;;;7.47;65.16;99775.88;4958938;28;20263;-74
2022/04/24 02:15:56;;;;;;;4.30;3.70;;;;;;;7.44;65.86;99771.63;4970012;28;20216;-74
2022/04/24 02:18:23;;;;;;;4.37;3.70;;;;;;;7.42;65.94;99767.38;4963445;28;20228;-74
2022/04/24 02:20:49;;;;;;;6.23;3.93;;;;;;;7.40;66.05;99780.72;4967382;28;20204;-74
2022/04/24 02:23:16;;;;;;;5.43;3.97;;;;;;;7.36;66.08;99768.59;4963322;28;20694;-73
2022/04/24 02:25:42;;;;;;;5.97;3.53;;;;;;;7.35;66.11;99766.06;4959128;28;20255;-75
2022/04/24 02:28:09;;;;;;;6.63;3.40;;;;;;;7.34;65.78;99767.03;4960563;28;20251;-73
2022/04/24 02:30:37;;;;;;;6.00;3.83;;;;;;;7.31;66.42;99765.44;4964723;28;20215;-74
2022/04/24 02:33:03;;;;;;;4.13;3.73;;;;;;;7.27;66.04;99763.91;4958796;28;20602;-74
2022/04/24 02:35:31;;;;;;;6.17;3.60;;;;;;;7.25;66.47;99760.50;4964833;28;20211;-74
2022/04/24 02:37:57;;;;;;;3.70;3.30;;;;;;;7.22;66.69;99768.66;4962219;28;20213;-75
2022/04/24 02:40:24;;;;;;;6.37;3.67;;;;;;;7.20;66.36;99774.03;4967753;28;20208;-74
2022/04/24 02:42:51;;;;;;;6.53;4.00;;;;;;;7.18;67.03;99765.34;4955663;28;20217;-74
2022/04/24 02:45:19;;;;;;;4.47;3.77;;;;;;;7.15;66.81;99760.25;4958284;28;20209;-75
2022/04/24 02:47:47;;;;;;;4.33;3.93;;;;;;;7.12;67.00;99760.44;4960702;28;20232;-75
2022/04/24 02:50:14;;;;;;;4.27;3.40;;;;;;;7.10;66.87;99772.94;4968900;28;20212;-74
2022/04/24 02:52:48;;;;;;;4.80;4.00;;;;;;;7.08;67.37;99766.88;4960808;28;20208;-75
2022/04/24 02:55:15;;;;;;;4.20;3.87;;;;;;;7.05;67.27;99768.84;4961514;28;20215;-74
2022/04/24 02:57:43;;;;;;;4.30;3.80;;;;;;;7.02;67.64;99761.97;4958975;28;20228;-74
2022/04/24 03:00:11;;;;;;;5.17;3.80;;;;;;;7.00;67.73;99768.28;4969188;28;20205;-74
2022/04/24 03:02:42;;;;;;;5.53;3.67;;;;;;;6.97;67.46;99767.56;4969180;28;20211;-75
2022/04/24 03:05:11;;;;;;;5.73;3.80;;;;;;;6.93;67.25;99763.41;4963534;28;20681;-75
2022/04/24 03:07:38;;;;;;;4.00;3.67;;;;;;;6.91;67.07;99767.94;4966062;28;20231;-75
2022/04/24 03:10:06;;;;;;;5.37;3.60;;;;;;;6.87;67.79;99755.81;4969450;28;20287;-73
2022/04/24 03:12:32;;;;;;;5.70;4.23;;;;;;;6.85;67.71;99760.38;4968765;28;20745;-74
2022/04/24 03:14:59;;;;;;;4.70;3.40;;;;;;;6.83;67.96;99764.03;4969384;28;20216;-75
2022/04/24 03:17:25;;;;;;;4.20;3.80;;;;;;;6.79;67.73;99762.56;4968335;28;20217;-74
2022/04/24 03:19:52;;;;;;;3.90;3.47;;;;;;;6.77;68.24;99762.66;4969052;28;20686;-75
2022/04/24 03:22:20;;;;;;;6.47;3.80;;;;;;;6.75;67.94;99761.03;4968942;28;20212;-74
2022/04/24 03:24:46;;;;;;;5.57;4.53;;;;;;;6.73;67.80;99766.44;4969191;28;20212;-74
2022/04/24 03:27:13;;;;;;;5.00;3.70;;;;;;;6.70;68.15;99763.97;4968324;28;20242;-74
2022/04/24 03:29:40;;;;;;;4.87;3.90;;;;;;;6.69;68.42;99770.19;4969176;28;20212;-74
2022/04/24 03:32:07;;;;;;;4.57;3.90;;;;;;;6.67;68.14;99769.44;4966516;28;20220;-74
2022/04/24 03:34:34;;;;;;;7.97;4.13;;;;;;;6.66;68.41;99767.72;4968096;28;20419;-74
2022/04/24 03:37:01;;;;;;;5.27;4.23;;;;;;;6.65;68.38;99762.53;4964174;28;20208;-74
2022/04/24 03:39:28;;;;;;;4.27;3.53;;;;;;;6.63;68.49;99762.63;4964834;28;20205;-74
2022/04/24 03:41:55;;;;;;;4.83;4.37;;;;;;;6.61;68.16;99765.41;4958189;28;20205;-74
2022/04/24 03:44:21;;;;;;;7.93;4.23;;;;;;;6.60;68.23;99762.84;4967228;28;20555;-74
2022/04/24 03:46:48;;;;;;;4.00;3.70;;;;;;;6.59;68.37;99771.72;4962497;28;20212;-72
2022/04/24 03:49:14;;;;;;;4.43;3.90;;;;;;;6.56;68.57;99762.16;4966679;28;20224;-74
2022/04/24 03:51:41;;;;;;;4.80;3.93;;;;;;;6.55;68.95;99764.91;4965722;28;20204;-74
2022/04/24 03:54:07;;;;;;;4.27;3.87;;;;;;;6.52;68.61;99771.22;4964923;28;20611;-74
2022/04/24 03:56:35;;;;;;;4.33;3.93;;;;;;;6.51;68.71;99766.03;4958388;28;20216;-75
2022/04/24 03:59:02;;;;;;;4.33;3.70;;;;;;;6.49;68.57;99767.91;4966752;28;20239;-74
2022/04/24 04:01:28;;;;;;;4.70;3.77;;;;;;;6.45;68.73;99769.06;4968314;28;20220;-74
2022/04/24 04:03:56;;;;;;;5.00;3.73;;;;;;;6.44;68.97;99770.00;4957832;28;20212;-75
2022/04/24 04:06:23;;;;;;;4.50;3.63;;;;;;;6.41;69.32;99763.09;4970128;28;20691;-74
2022/04/24 04:08:50;;;;;;;5.50;3.93;;;;;;;6.40;69.44;99768.47;4961168;28;20694;-74
2022/04/24 04:11:16;;;;;;;3.97;3.50;;;;;;;6.38;69.23;99770.38;4961717;28;20303;-74
2022/04/24 04:13:44;;;;;;;6.67;4.10;;;;;;;6.36;69.28;99767.81;4963141;28;20695;-74
2022/04/24 04:16:11;;;;;;;4.50;3.90;;;;;;;6.35;69.44;99767.91;4963345;28;20594;-74
2022/04/24 04:18:37;;;;;;;5.03;3.47;;;;;;;6.32;69.62;99768.94;4958793;28;20231;-74
2022/04/24 04:21:04;;;;;;;5.33;4.10;;;;;;;6.30;69.88;99760.22;4962091;28;20205;-74
2022/04/24 04:23:30;;;;;;;5.93;4.50;;;;;;;6.28;69.73;99768.25;4966805;28;20670;-74
2022/04/24 04:25:57;;;;;;;4.77;3.63;;;;;;;6.26;70.32;99767.53;4964065;28;20209;-74
2022/04/24 04:28:23;;;;;;;6.07;4.20;;;;;;;6.24;70.23;99769.41;4959059;28;20603;-74
2022/04/24 04:30:51;;;;;;;5.23;4.07;;;;;;;6.23;70.21;99767.69;4965168;28;20840;-74
2022/04/24 04:33:18;;;;;;;4.93;3.77;;;;;;;6.19;70.24;99766.16;4967626;28;20231;-74
2022/04/24 04:35:45;;;;;;;6.47;4.20;;;;;;;6.19;70.33;99762.69;4963069;28;20216;-74
2022/04/24 04:38:12;;;;;;;5.63;3.93;;;;;;;6.17;70.44;99760.13;4962261;28;20294;-74
2022/04/24 04:40:38;;;;;;;4.47;4.07;;;;;;;6.17;70.47;99769.84;4959380;28;20276;-74
2022/04/24 04:43:05;;;;;;;4.40;3.60;;;;;;;6.18;70.67;99769.75;4970354;28;20205;-74
2022/04/24 04:45:32;;;;;;;6.73;3.53;;;;;;;6.16;71.02;99769.00;4970372;28;20212;-74
2022/04/24 04:48:00;;;;;;;4.23;3.53;;;;;;;6.17;70.92;99769.84;4967479;28;20702;-74
2022/04/24 04:50:26;;;;;;;5.53;3.67;;;;;;;6.16;71.09;99769.00;4950954;28;20686;-73
2022/04/24 04:52:52;;;;;;;5.00;4.13;;;;;;;6.15;71.25;99764.66;4955183;28;20219;-74
2022/04/24 04:55:19;;;;;;;4.27;3.70;;;;;;;6.16;71.30;99779.56;4958670;28;20721;-74
2022/04/24 04:57:47;;;;;;;4.87;3.90;;;;;;;6.16;71.46;99779.56;4957883;28;20236;-74
2022/04/24 05:00:15;;;;;;;6.20;3.97;;;;;;;6.17;71.54;99783.06;4955747;28;20208;-74
2022/04/24 05:02:41;;;;;;;5.40;3.90;;;;;;;6.18;71.57;99775.03;4970722;28;20216;-74
2022/04/24 05:05:10;;;;;;;6.67;3.90;;;;;;;6.19;71.57;99789.97;4971277;28;20216;-74
2022/04/24 05:07:37;;;;;;;5.63;4.10;;;;;;;6.21;71.82;99796.03;4969821;28;20359;-74
2022/04/24 05:10:05;;;;;;;6.00;4.10;;;;;;;6.23;72.09;99795.94;4970202;28;20204;-74
2022/04/24 05:12:32;;;;;;;4.30;3.90;;;;;;;6.25;71.93;99794.06;4971085;28;20298;-75
2022/04/24 05:15:01;;;;;;;4.93;3.90;;;;;;;6.27;72.10;99792.13;4971051;28;20201;-74
2022/04/24 05:17:28;;;;;;;6.87;4.30;;;;;;;6.30;72.19;99791.97;4970418;28;20753;-75
2022/04/24 05:19:54;;;;;;;5.57;3.87;;;;;;;6.34;71.87;99790.84;4970186;28;20200;-75
2022/04/24 05:22:22;;;;;;;5.33;3.83;;;;;;;6.38;71.95;99791.53;4971113;28;20306;-75
2022/04/24 05:24:49;;;;;;;6.13;4.43;;;;;;;6.40;72.22;99789.63;4970643;28;20208;-74
2022/04/24 05:27:15;;;;;;;5.63;3.83;;;;;;;6.45;72.18;99792.88;4970007;28;20287;-74
2022/04/24 05:29:42;;;;;;;6.57;3.97;;;;;;;6.47;72.11;99794.44;4970154;28;20232;-74
2022/04/24 05:32:10;;;;;;;3.70;3.30;;;;;;;6.50;71.81;99785.47;4970413;28;20705;-74
2022/04/24 05:34:37;;;;;;;4.50;3.50;;;;;;;6.53;72.32;99786.16;4965588;28;20583;-74
2022/04/24 05:37:04;;;;;;;5.77;3.70;;;;;;;6.59;72.14;99787.59;4966071;28;20216;-75
2022/04/24 05:39:33;;;;;;;5.53;4.00;;;;;;;6.65;72.26;99789.84;4970307;28;20200;-74
2022/04/24 05:41:59;;;;;;;5.23;4.07;;;;;;;6.71;72.14;99791.28;4970345;28;20208;-75
2022/04/24 05:44:26;;;;;;;6.07;3.67;;;;;;;6.78;72.05;99789.97;4971285;28;20226;-75
2022/04/24 05:46:53;;;;;;;5.40;4.40;;;;;;;6.85;72.25;99788.63;4960069;28;20224;-74
2022/04/24 05:49:20;;;;;;;5.23;3.80;;;;;;;6.92;72.05;99796.09;4961314;28;20710;-75
2022/04/24 05:51:46;;;;;;;5.57;4.07;;;;;;;6.97;72.20;99791.38;4956838;28;20224;-75
2022/04/24 05:54:15;;;;;;;6.20;4.07;;;;;;;7.06;71.92;99794.38;4954064;28;20204;-75
2022/04/24 05:56:43;;;;;;;4.60;4.10;;;;;;;7.13;72.22;99793.91;4969908;28;20214;-74
2022/04/24 05:59:10;;;;;;;4.97;3.77;;;;;;;7.21;72.22;99793.41;4970143;28;20224;-74
2022/04/24 06:01:37;;;;;;;4.30;3.60;;;;;;;7.30;72.35;99790.22;4969974;28;20200;-75
2022/04/24 06:04:04;;;;;;;6.23;3.77;;;;;;;7.38;71.89;99785.25;4970306;28;20215;-75
2022/04/24 06:06:32;;;;;;;5.53;4.23;;;;;;;7.48;71.53;99790.84;4968854;28;20211;-74
2022/04/24 06:08:58;;;;;;;6.03;3.97;;;;;;;7.53;71.12;99788.72;4970124;28;20263;-74
2022/04/24 06:11:25;;;;;;;4.87;3.77;;;;;;;7.57;70.72;99798.19;4969941;28;20204;-75
2022/04/24 06:13:53;;;;;;;6.73;3.97;;;;;;;7.64;70.46;99787.09;4969675;28;20437;-75
2022/04/24 06:16:19;;;;;;;6.57;3.33;;;;;;;7.71;70.18;99795.47;4965355;28;20200;-73
2022/04/24 06:18:46;;;;;;;4.90;3.70;;;;;;;7.77;70.29;99780.97;4967005;28;20604;-75
2022/04/24 06:21:12;;;;;;;4.07;3.67;;;;;;;7.84;69.52;99784.94;4969688;28;20208;-74
2022/04/24 06:23:39;;;;;;;4.73;3.40;;;;;;;7.92;70.20;99785.28;4969516;28;20203;-75
2022/04/24 06:26:05;;;;;;;4.60;4.20;;;;;;;7.99;70.20;99776.81;4969410;28;20210;-75
2022/04/24 06:28:32;;;;;;;5.00;4.20;;;;;;;8.09;69.46;99789.44;5003243;23;20470;-71
2022/04/24 06:30:59;;;;;;;5.70;3.90;;;;;;;8.18;69.32;99789.69;4987871;28;20215;-68
2022/04/24 06:33:26;;;;;;;5.73;3.90;;;;;;;8.27;69.48;99785.56;4989083;28;20689;-71
2022/04/24 06:35:53;;;;;;;4.33;3.90;;;;;;;8.35;69.30;99786.78;4988691;28;20200;-71
2022/04/24 06:38:21;;;;;;;4.80;4.00;;;;;;;8.44;69.71;99785.31;4989171;28;20227;-69
2022/04/24 06:40:47;;;;;;;5.47;3.90;;;;;;;8.54;68.54;99786.38;4988569;28;20291;-68
2022/04/24 06:43:14;;;;;;;4.03;3.47;;;;;;;8.63;68.23;99783.09;4974948;28;20684;-69
2022/04/24 06:45:43;;;;;;;4.23;3.13;;;;;;;8.72;67.56;99780.75;4987926;28;20207;-70
2022/04/24 06:48:12;;;;;;;4.30;3.17;;;;;;;8.78;66.95;99773.19;4988621;28;20238;-71
2022/04/24 06:50:40;;;;;;;9.67;3.93;;;;;;;8.85;66.63;99782.44;4987003;28;20207;-69
2022/04/24 06:53:07;;;;;;;4.67;3.70;;;;;;;8.93;66.99;99779.28;4988489;28;20234;-71
2022/04/24 06:55:36;;;;;;;4.77;3.63;;;;;;;9.02;66.20;99774.16;4989200;28;20215;-71
2022/04/24 06:58:03;;;;;;;5.67;3.87;;;;;;;9.10;66.29;99778.06;4988293;28;20250;-69
2022/04/24 07:00:32;;;;;;;5.77;3.93;;;;;;;9.19;65.81;99777.41;4987995;28;20200;-71
2022/04/24 07:02:58;;;;;;;4.53;3.73;;;;;;;9.31;65.47;99766.78;4979268;28;20200;-70
2022/04/24 07:05:28;;;;;;;3.57;3.27;;;;;;;9.44;65.18;99763.22;4982383;28;20204;-72
2022/04/24 07:07:54;;;;;;;5.53;4.07;;;;;;;9.54;65.11;99762.41;4983035;28;20234;-70
2022/04/24 07:10:21;;;;;;;4.17;3.43;;;;;;;9.57;64.08;99766.66;4980728;28;20224;-71
2022/04/24 07:12:49;;;;;;;4.47;3.20;;;;;;;9.54;62.71;99765.06;4984155;28;20224;-69
2022/04/24 07:15:15;;;;;;;5.93;3.67;;;;;;;9.50;62.50;99760.09;4981248;28;20222;-69
2022/04/24 07:17:42;;;;;;;4.90;3.90;;;;;;;9.49;63.17;99753.97;4985878;28;20346;-70
2022/04/24 07:20:10;;;;;;;3.97;3.50;;;;;;;9.55;63.42;99753.47;4983273;28;20669;-69
2022/04/24 07:22:45;;;;;;;4.33;3.60;;;;;;;9.63;63.74;99761.75;4980534;28;20669;-68
2022/04/24 07:25:13;;;;;;;4.67;3.40;;;;;;;9.66;63.10;99758.03;4978321;28;20211;-69
2022/04/24 07:27:39;;;;;;;6.37;3.93;;;;;;;9.72;62.56;99758.41;4976548;28;20586;-68
2022/04/24 07:30:13;;;;;;;9.97;5.00;;;;;;;9.74;62.48;99752.97;4978916;28;20251;-69
2022/04/24 07:32:40;;;;;;;5.03;4.20;;;;;;;9.83;62.55;99751.47;4979756;28;20351;-72
2022/04/24 07:35:10;;;;;;;5.50;3.57;;;;;;;9.93;62.73;99748.00;4980797;28;20757;-73
2022/04/24 07:37:37;;;;;;;6.07;3.87;;;;;;;10.00;61.93;99749.25;4977442;28;20671;-70
2022/04/24 07:40:07;;;;;;;5.47;3.73;;;;;;;10.10;61.91;99741.41;4980466;28;20200;-72
2022/04/24 07:42:44;;;;;;;7.00;3.70;;;;;;;10.21;62.06;99752.09;4980539;28;20204;-71
2022/04/24 07:45:11;;;;;;;4.90;3.70;;;;;;;10.27;61.55;99740.16;4977913;28;20230;-72
2022/04/24 07:47:37;;;;;;;4.20;3.40;;;;;;;10.35;61.13;99745.75;4980535;28;20231;-71
2022/04/24 07:50:05;;;;;;;4.03;3.63;;;;;;;10.44;61.12;99742.34;4977916;28;20225;-70
2022/04/24 07:52:31;;;;;;;4.17;3.63;;;;;;;10.51;60.64;99732.09;4982801;28;20630;-69
2022/04/24 07:54:58;;;;;;;5.57;3.30;;;;;;;10.58;60.98;99722.66;4975854;28;20201;-71
2022/04/24 07:57:26;;;;;;;4.93;3.80;;;;;;;10.69;61.04;99730.66;4980395;28;20227;-70
2022/04/24 07:59:52;;;;;;;5.40;3.40;;;;;;;10.81;60.94;99727.03;4980474;28;20200;-70
2022/04/24 08:02:19;;;;;;;5.30;3.90;;;;;;;10.95;60.81;99731.25;4977866;28;20205;-70
2022/04/24 08:04:45;;;;;;;5.40;3.63;;;;;;;11.08;60.51;99716.84;4985097;28;20215;-69
2022/04/24 08:07:12;;;;;;;4.03;3.27;;;;;;;11.24;59.68;99726.28;4980612;28;20214;-70
2022/04/24 08:09:39;;;;;;;4.83;3.93;;;;;;;11.34;59.47;99724.53;4983765;28;20629;-70
2022/04/24 08:12:06;;;;;;;7.63;3.70;;;;;;;11.41;58.95;99715.09;4979434;28;20208;-70
2022/04/24 08:14:34;;;;;;;6.57;4.13;;;;;;;11.51;59.10;99717.84;4981586;28;20741;-73
2022/04/24 08:17:01;;;;;;;6.63;4.07;;;;;;;11.62;58.66;99720.50;4976118;28;20237;-70
2022/04/24 08:19:27;;;;;;;4.60;3.53;;;;;;;11.72;58.51;99718.75;4976398;28;20244;-70
2022/04/24 08:21:54;;;;;;;7.60;4.47;;;;;;;11.82;57.21;99715.19;4977111;28;20215;-69
2022/04/24 08:24:20;;;;;;;7.20;3.77;;;;;;;11.91;57.47;99715.44;4981491;28;20705;-70
2022/04/24 08:26:47;;;;;;;4.50;3.60;;;;;;;11.99;57.36;99716.50;4982298;28;20226;-70
2022/04/24 08:29:13;;;;;;;4.67;2.97;;;;;;;12.08;56.84;99718.38;4979524;28;20245;-71
2022/04/24 08:31:41;;;;;;;4.13;3.70;;;;;;;12.17;56.52;99724.78;4980565;28;20587;-70
2022/04/24 08:34:08;;;;;;;4.33;3.30;;;;;;;12.22;55.80;99714.53;4984213;28;20217;-70
2022/04/24 08:36:34;;;;;;;4.17;3.50;;;;;;;12.29;56.70;99713.03;4973426;28;20220;-70
2022/04/24 08:39:01;;;;;;;5.53;4.33;;;;;;;12.38;56.35;99711.38;4979890;28;20236;-71
2022/04/24 08:41:32;;;;;;;4.40;3.60;;;;;;;12.51;56.00;99714.72;4978783;28;20204;-69
2022/04/24 08:44:01;;;;;;;5.47;4.10;;;;;;;12.60;55.62;99713.91;4980782;28;20203;-70
2022/04/24 08:46:28;;;;;;;6.67;3.93;;;;;;;12.74;56.04;99718.91;4977094;28;20208;-69
2022/04/24 08:48:55;;;;;;;5.30;4.30;;;;;;;12.88;55.02;99720.38;4978402;28;20227;-70
2022/04/24 08:51:22;;;;;;;6.33;4.10;;;;;;;12.96;54.60;99709.00;4982667;28;20223;-69
2022/04/24 08:53:50;;;;;;;5.30;3.87;;;;;;;13.02;54.48;99705.81;4975363;28;20207;-68
2022/04/24 08:56:16;;;;;;;5.90;4.00;;;;;;;13.09;54.62;99701.59;4979764;28;20697;-70
2022/04/24 08:58:43;;;;;;;5.47;3.87;;;;;;;13.18;54.43;99709.69;4984177;28;20228;-70
2022/04/24 09:01:10;;;;;;;4.60;3.90;;;;;;;13.27;53.76;99705.34;4985525;28;20208;-69
2022/04/24 09:03:37;;;;;;;5.10;3.90;;;;;;;13.35;54.38;99708.19;4977946;28;20227;-69
2022/04/24 09:06:05;;;;;;;4.50;3.47;;;;;;;13.47;53.12;99707.06;4981023;28;20675;-70
2022/04/24 09:08:35;;;;;;;4.90;3.97;;;;;;;13.53;53.55;99703.00;4985683;28;20755;-70
2022/04/24 09:11:08;;;;;;;5.53;3.60;;;;;;;13.60;53.42;99703.31;4978112;28;20721;-70
2022/04/24 09:14:14;;;;;;;9.37;4.90;;;;;;;13.67;53.02;99704.41;4977561;28;20208;-71
2022/04/24 09:16:26;;;;;;;6.07;4.70;;;;;;;13.71;53.09;99705.84;4976440;28;20232;-71
2022/04/24 09:18:53;;;;;;;4.83;3.90;;;;;;;13.78;52.47;99701.63;4983078;28;20262;-68
2022/04/24 09:21:20;;;;;;;6.33;5.07;;;;;;;13.83;52.42;99700.19;4977084;28;20574;-70
2022/04/24 09:23:47;;;;;;;7.60;5.27;;;;;;;13.90;52.99;99703.16;4982177;28;20214;-69
2022/04/24 09:26:17;;;;;;;5.40;4.13;;;;;;;14.01;53.10;99712.88;4983443;28;20211;-69
2022/04/24 09:28:44;;;;;;;5.13;4.63;;;;;;;14.09;51.68;99696.94;4979314;28;20261;-70
2022/04/24 09:31:11;;;;;;;5.60;4.43;;;;;;;14.16;51.83;99706.09;4979520;28;20254;-69
2022/04/24 09:33:39;;;;;;;5.83;4.97;;;;;;;14.26;51.21;99701.56;4980068;28;20211;-70
2022/04/24 09:36:07;;;;;;;7.10;4.93;;;;;;;14.38;51.24;99704.94;4974559;28;20216;-70
2022/04/24 09:38:42;;;;;;;5.80;5.20;;;;;;;14.52;51.80;99705.34;4977679;28;20772;-70
2022/04/24 09:41:16;;;;;;;7.13;4.73;;;;;;;14.63;51.08;99709.69;4976103;28;20258;-69
2022/04/24 09:43:43;;;;;;;5.37;4.53;;;;;;;14.74;51.13;99714.03;4980972;28;20206;-68
2022/04/24 09:46:10;;;;;;;6.60;5.10;;;;;;;14.86;50.82;99707.50;4984604;28;20212;-70
2022/04/24 09:48:36;;;;;;;5.73;4.73;;;;;;;14.94;50.28;99710.28;4980897;28;20235;-70
2022/04/24 09:51:03;;;;;;;5.73;4.73;;;;;;;14.97;48.80;99707.31;4978671;28;20713;-69
2022/04/24 09:53:32;;;;;;;6.47;5.20;;;;;;;14.94;49.43;99704.94;4982659;28;20215;-70
2022/04/24 09:56:02;;;;;;;5.27;4.47;;;;;;;14.94;49.74;99715.66;4979766;28;20200;-70
2022/04/24 09:58:29;;;;;;;5.87;5.13;;;;;;;14.96;50.18;99710.97;4980926;28;20234;-71
2022/04/24 10:00:56;;;;;;;5.40;4.67;;;;;;;14.96;49.49;99716.34;4982648;28;20207;-70
2022/04/24 10:03:22;;;;;;;5.57;4.97;;;;;;;14.95;49.65;99717.34;4983917;28;20223;-71
2022/04/24 10:05:49;;;;;;;7.77;5.80;;;;;;;15.01;50.91;99711.41;4989427;28;20207;-70
2022/04/24 10:08:19;;;;;;;6.17;5.57;;;;;;;15.06;50.14;99716.28;4989018;28;20466;-70
2022/04/24 10:10:45;;;;;;;6.83;5.43;;;;;;;15.01;49.27;99716.75;4989237;28;20599;-70
2022/04/24 10:13:15;;;;;;;6.30;5.70;;;;;;;15.06;49.33;99711.78;4988767;28;20207;-70
2022/04/24 10:15:49;;;;;;;5.93;5.13;;;;;;;15.09;49.81;99711.47;4984744;28;20203;-71
2022/04/24 10:18:43;;;;;;;7.13;4.83;;;;;;;15.16;49.93;99709.91;4988507;28;20349;-71
2022/04/24 10:21:40;;;;;;;5.67;4.27;;;;;;;15.21;49.18;99712.16;4988118;28;20661;-70
2022/04/24 10:24:09;;;;;;;6.60;5.60;;;;;;;15.21;49.60;99718.34;4987960;28;20200;-71
2022/04/24 10:26:37;;;;;;;7.30;5.20;;;;;;;15.25;50.19;99710.84;4984669;28;20212;-71
2022/04/24 10:29:07;;;;;;;6.63;5.07;;;;;;;15.26;49.96;99710.69;4979426;28;20808;-70
2022/04/24 10:31:44;;;;;;;6.47;5.07;;;;;;;15.34;50.09;99706.41;4988328;28;20401;-70
2022/04/24 10:34:11;;;;;;;6.70;5.70;;;;;;;15.38;49.50;99711.34;4988157;28;20212;-70
2022/04/24 10:36:38;;;;;;;4.70;4.27;;;;;;;15.45;49.38;99700.81;4980997;28;20761;-70
2022/04/24 10:39:16;;;;;;;7.10;5.70;;;;;;;15.55;49.56;99704.31;4976630;28;20928;-70
2022/04/24 10:41:54;;;;;;;6.00;4.77;;;;;;;15.63;48.82;99702.56;4973656;28;20270;-70
2022/04/24 10:44:22;;;;;;;8.10;5.23;;;;;;;15.69;49.52;99701.13;4979749;28;20226;-70
2022/04/24 10:46:50;;;;;;;7.10;5.90;;;;;;;15.77;49.30;99698.50;4980215;28;20622;-69
2022/04/24 10:49:18;;;;;;;5.97;5.30;;;;;;;15.80;49.09;99702.72;4980407;28;20234;-70
2022/04/24 10:51:46;;;;;;;7.17;5.77;;;;;;;15.79;48.74;99695.66;4976664;28;20219;-70
2022/04/24 10:54:14;;;;;;;9.40;6.07;;;;;;;15.75;48.68;99697.84;4974728;28;20233;-70
2022/04/24 10:56:43;;;;;;;6.57;5.90;;;;;;;15.71;48.00;99684.88;4972388;28;20656;-69
2022/04/24 10:59:10;;;;;;;7.63;5.13;;;;;;;15.69;48.74;99690.38;4982571;28;20225;-70
2022/04/24 11:01:42;;;;;;;7.60;5.43;;;;;;;15.76;49.61;99677.22;4978581;28;20200;-68
2022/04/24 11:04:11;;;;;;;6.60;5.30;;;;;;;15.84;49.00;99686.16;4980220;28;20510;-70
2022/04/24 11:06:38;;;;;;;6.87;6.13;;;;;;;15.88;48.76;99679.50;4981393;28;20205;-70
2022/04/24 11:09:09;;;;;;;7.90;6.30;;;;;;;15.91;48.29;99681.88;4982315;28;20227;-70
2022/04/24 11:11:45;;;;;;;6.77;6.00;;;;;;;15.98;49.75;99677.56;4970956;28;20225;-70
2022/04/24 11:14:12;;;;;;;6.77;5.67;;;;;;;16.07;49.59;99670.41;4971617;28;20208;-70
2022/04/24 11:16:48;;;;;;;6.63;5.93;;;;;;;16.15;49.65;99677.69;4976853;28;20217;-70
2022/04/24 11:19:23;;;;;;;7.67;5.43;;;;;;;16.20;48.46;99668.16;4979880;28;20239;-71
2022/04/24 11:21:55;;;;;;;6.73;5.43;;;;;;;16.23;48.30;99667.00;4978948;28;20230;-70
2022/04/24 11:24:22;;;;;;;10.67;6.13;;;;;;;16.24;48.08;99671.38;4981763;28;20212;-70
2022/04/24 11:26:48;;;;;;;7.50;5.93;;;;;;;16.25;48.44;99667.69;4983464;28;20590;-68
2022/04/24 11:29:15;;;;;;;7.57;6.20;;;;;;;16.29;49.05;99663.72;4974634;28;20240;-70
2022/04/24 11:31:49;;;;;;;7.13;5.73;;;;;;;16.36;48.29;99663.91;4983797;28;20225;-69
2022/04/24 11:34:18;;;;;;;6.80;6.20;;;;;;;16.42;48.39;99663.28;4979374;28;20624;-70
2022/04/24 11:36:46;;;;;;;6.60;5.90;;;;;;;16.50;48.47;99668.69;4979173;28;20207;-70
2022/04/24 11:39:12;;;;;;;7.17;6.13;;;;;;;16.52;47.14;99677.44;4980399;28;20742;-70
2022/04/24 11:41:39;;;;;;;6.93;6.07;;;;;;;16.44;46.57;99662.13;4987738;28;20206;-70